createdAt,value
2023-02-06T00:01:52.233Z,99403.91
2023-02-06T00:04:20.597Z,99396.28
2023-02-06T00:06:49.007Z,99399.34
2023-02-06T00:09:17.401Z,99400.09
2023-02-06T00:11:45.689Z,99396.81
2023-02-06T00:14:13.972Z,99408.25
2023-02-06T00:16:42.266Z,99409.28
2023-02-06T00:19:10.602Z,99410.84
2023-02-06T00:21:38.945Z,99417.47
2023-02-06T00:24:07.867Z,99421.31
2023-02-06T00:26:36.236Z,99414.47
2023-02-06T00:29:04.857Z,99418.81
2023-02-06T00:31:33.195Z,99426.97
2023-02-06T00:34:01.599Z,99425.69
2023-02-06T00:36:29.901Z,99428.00
2023-02-06T00:38:58.307Z,99428.25
2023-02-06T00:41:26.624Z,99430.56
2023-02-06T00:43:54.944Z,99431.59
2023-02-06T00:46:23.277Z,99437.44
2023-02-06T00:48:51.693Z,99438.50
2023-02-06T00:51:20.110Z,99444.34
2023-02-06T00:53:50.989Z,99449.72
2023-02-06T00:56:19.830Z,99447.47
2023-02-06T00:58:48.129Z,99454.88
2023-02-06T01:01:16.430Z,99453.09
2023-02-06T01:03:44.936Z,99461.25
2023-02-06T01:06:13.207Z,99459.50
2023-02-06T01:08:41.561Z,99465.63
2023-02-06T01:11:27.086Z,99467.41
2023-02-06T01:13:55.829Z,99467.97
2023-02-06T01:16:26.200Z,99471.81
2023-02-06T01:18:55.123Z,99482.75
2023-02-06T01:21:25.788Z,99478.97
2023-02-06T01:23:55.831Z,99483.06
2023-02-06T01:26:27.878Z,99484.84
2023-02-06T01:28:56.944Z,99481.81
2023-02-06T01:31:28.663Z,99483.94
2023-02-06T01:33:59.264Z,99491.59
2023-02-06T01:36:28.383Z,99500.03
2023-02-06T01:38:56.707Z,99500.06
2023-02-06T01:41:25.250Z,99500.84
2023-02-06T01:44:14.424Z,99516.41
2023-02-06T01:46:45.621Z,99514.41
2023-02-06T01:49:19.798Z,99524.34
2023-02-06T01:51:50.512Z,99525.91
2023-02-06T01:54:19.186Z,99538.19
2023-02-06T01:56:56.411Z,99530.56
2023-02-06T01:59:26.663Z,99535.69
2023-02-06T02:01:55.217Z,99544.91
2023-02-06T02:04:28.022Z,99545.22
2023-02-06T02:07:26.503Z,99546.25
2023-02-06T02:09:54.868Z,99544.22
2023-02-06T02:12:23.154Z,99539.66
2023-02-06T02:14:54.854Z,99551.16
2023-02-06T02:17:56.393Z,99550.66
2023-02-06T02:21:01.110Z,99551.69
2023-02-06T02:23:52.552Z,99550.72
2023-02-06T02:26:31.123Z,99551.78
2023-02-06T02:29:34.737Z,99556.38
2023-02-06T02:32:05.688Z,99553.03
2023-02-06T02:35:06.385Z,99554.59
2023-02-06T02:37:43.559Z,99560.72
2023-02-06T02:40:17.940Z,99557.66
2023-02-06T02:43:03.456Z,99552.31
2023-02-06T02:45:47.737Z,99555.34
2023-02-06T02:48:24.149Z,99547.94
2023-02-06T02:50:55.416Z,99548.22
2023-02-06T02:53:26.740Z,99551.28
2023-02-06T02:55:55.410Z,99542.56
2023-02-06T02:58:27.891Z,99545.59
2023-02-06T03:01:03.491Z,99551.47
2023-02-06T03:03:35.498Z,99536.13
2023-02-06T03:06:23.890Z,99529.47
2023-02-06T03:09:06.097Z,99533.75
2023-02-06T03:11:39.379Z,99534.03
2023-02-06T03:14:16.600Z,99529.91
2023-02-06T03:16:52.264Z,99517.88
2023-02-06T03:19:34.349Z,99530.63
2023-02-06T03:22:04.120Z,99518.31
2023-02-06T03:24:39.756Z,99521.63
2023-02-06T03:27:18.021Z,99523.09
2023-02-06T03:29:50.302Z,99516.91
2023-02-06T03:32:25.030Z,99510.75
2023-02-06T03:35:08.179Z,99503.28
2023-02-06T03:37:38.585Z,99499.94
2023-02-06T03:40:08.916Z,99490.38
2023-02-06T03:42:42.462Z,99488.56
2023-02-06T03:45:30.021Z,99480.81
2023-02-06T03:48:22.753Z,99482.06
2023-02-06T03:50:55.253Z,99479.94
2023-02-06T03:53:26.576Z,99471.47
2023-02-06T03:56:00.170Z,99461.69
2023-02-06T03:58:28.487Z,99461.84
2023-02-06T04:00:56.958Z,99450.78
2023-02-06T04:03:25.745Z,99449.47
2023-02-06T04:05:54.047Z,99444.53
2023-02-06T04:08:22.448Z,99441.09
2023-02-06T04:10:50.775Z,99440.50
2023-02-06T04:13:19.092Z,99439.16
2023-02-06T04:15:47.401Z,99439.31
2023-02-06T04:18:15.711Z,99429.47
2023-02-06T04:20:44.064Z,99428.34
2023-02-06T04:23:12.364Z,99422.13
2023-02-06T04:25:40.690Z,99413.59
2023-02-06T04:28:09.262Z,99408.63
2023-02-06T04:30:37.602Z,99405.94
2023-02-06T04:33:06.325Z,99404.81
2023-02-06T04:35:34.941Z,99399.31
2023-02-06T04:38:03.504Z,99402.25
2023-02-06T04:40:31.974Z,99387.00
2023-02-06T04:43:00.354Z,99387.16
2023-02-06T04:45:28.714Z,99373.16
2023-02-06T04:47:59.168Z,99376.66
2023-02-06T04:50:32.196Z,99371.69
2023-02-06T04:53:00.542Z,99354.88
2023-02-06T04:55:29.127Z,99348.03
2023-02-06T04:57:57.420Z,99341.72
2023-02-06T05:00:25.794Z,99336.97
2023-02-06T05:02:54.121Z,99336.53
2023-02-06T05:05:22.457Z,99328.94
2023-02-06T05:07:50.803Z,99317.97
2023-02-06T05:10:19.298Z,99316.19
2023-02-06T05:12:48.180Z,99308.56
2023-02-06T05:15:16.496Z,99305.09
2023-02-06T05:17:45.007Z,99295.38
2023-02-06T05:20:13.401Z,99284.38
2023-02-06T05:22:41.774Z,99277.50
2023-02-06T05:25:10.178Z,99277.03
2023-02-06T05:27:38.540Z,99272.94
2023-02-06T05:30:07.167Z,99269.66
2023-02-06T05:32:35.539Z,99267.63
2023-02-06T05:35:03.844Z,99261.50
2023-02-06T05:37:32.147Z,99250.25
2023-02-06T05:40:00.753Z,99252.38
2023-02-06T05:42:29.115Z,99248.47
2023-02-06T05:44:57.493Z,99236.25
2023-02-06T05:47:26.881Z,99235.69
2023-02-06T05:49:55.289Z,99236.25
2023-02-06T05:52:23.610Z,99237.56
2023-02-06T05:54:51.898Z,99218.31
2023-02-06T05:57:20.310Z,99217.38
2023-02-06T05:59:48.682Z,99206.63
2023-02-06T06:02:17.372Z,99206.31
2023-02-06T06:04:45.895Z,99194.19
2023-02-06T06:07:14.357Z,99193.09
2023-02-06T06:09:42.647Z,99177.78
2023-02-06T06:12:11.102Z,99169.81
2023-02-06T06:14:39.424Z,99167.16
2023-02-06T06:17:07.941Z,99163.53
2023-02-06T06:19:36.254Z,99156.50
2023-02-06T06:22:04.556Z,99147.81
2023-02-06T06:24:32.860Z,99138.78
2023-02-06T06:27:01.163Z,99137.88
2023-02-06T06:29:29.560Z,99120.56
2023-02-06T06:31:57.923Z,99111.53
2023-02-06T06:34:28.378Z,99113.63
2023-02-06T06:36:56.670Z,99098.56
2023-02-06T06:39:25.024Z,99089.72
2023-02-06T06:41:53.307Z,99088.59
2023-02-06T06:44:21.781Z,99084.25
2023-02-06T06:46:50.106Z,99079.38
2023-02-06T06:49:18.578Z,99074.28
2023-02-06T06:51:46.875Z,99069.19
2023-02-06T06:54:16.391Z,99068.47
2023-02-06T06:56:44.730Z,99062.66
2023-02-06T06:59:13.044Z,99054.16
2023-02-06T07:01:41.350Z,99051.16
2023-02-06T07:04:09.826Z,99040.38
2023-02-06T07:06:38.187Z,99042.28
2023-02-06T07:09:06.512Z,99034.94
2023-02-06T07:11:34.881Z,99026.06
2023-02-06T07:14:03.931Z,99016.59
2023-02-06T07:16:32.313Z,99015.66
2023-02-06T07:19:00.667Z,99004.50
2023-02-06T07:21:29.033Z,99008.31
2023-02-06T07:23:57.557Z,98998.09
2023-02-06T07:26:25.843Z,98997.19
2023-02-06T07:28:54.185Z,98994.16
2023-02-06T07:31:22.586Z,98986.22
2023-02-06T07:33:50.969Z,98977.53
2023-02-06T07:36:19.467Z,98970.91
2023-02-06T07:38:47.808Z,98969.59
2023-02-06T07:41:16.976Z,98967.50
2023-02-06T07:43:45.629Z,98962.41
2023-02-06T07:46:14.065Z,98958.25
2023-02-06T07:48:43.495Z,98952.03
2023-02-06T07:51:11.797Z,98945.81
2023-02-06T07:53:40.216Z,98945.81
2023-02-06T07:56:14.187Z,98948.06
2023-02-06T07:58:42.709Z,98947.50
2023-02-06T08:01:11.498Z,98933.91
2023-02-06T08:03:39.996Z,98927.28
2023-02-06T08:06:16.830Z,98927.09
2023-02-06T08:08:46.125Z,98924.09
2023-02-06T08:11:17.095Z,98916.53
2023-02-06T08:13:46.249Z,98915.00
2023-02-06T08:16:18.428Z,98915.00
2023-02-06T08:18:47.589Z,98914.25
2023-02-06T08:21:19.270Z,98914.06
2023-02-06T08:23:47.989Z,98910.31
2023-02-06T08:26:19.502Z,98908.81
2023-02-06T08:28:51.435Z,98905.78
2023-02-06T08:31:21.254Z,98905.97
2023-02-06T08:33:50.371Z,98900.13
2023-02-06T08:36:21.150Z,98895.03
2023-02-06T08:38:50.499Z,98898.06
2023-02-06T08:41:27.791Z,98895.78
2023-02-06T08:43:58.656Z,98896.91
2023-02-06T08:46:30.050Z,98893.72
2023-02-06T08:49:00.303Z,98885.81
2023-02-06T08:51:29.411Z,98894.69
2023-02-06T08:54:03.244Z,98891.66
2023-02-06T08:56:33.323Z,98895.06
2023-02-06T08:59:02.102Z,98892.81
2023-02-06T09:01:33.852Z,98892.06
2023-02-06T09:04:05.584Z,98888.28
2023-02-06T09:06:36.017Z,98886.03
2023-02-06T09:09:05.676Z,98886.59
2023-02-06T09:11:34.431Z,98879.59
2023-02-06T09:14:05.006Z,98882.25
2023-02-06T09:16:38.641Z,98885.84
2023-02-06T09:19:07.598Z,98882.44
2023-02-06T09:21:36.990Z,98883.75
2023-02-06T09:24:08.502Z,98893.56
2023-02-06T09:26:58.174Z,98890.75
2023-02-06T09:29:29.621Z,98890.19
2023-02-06T09:32:01.026Z,98896.41
2023-02-06T09:34:29.425Z,98892.06
2023-02-06T09:36:58.685Z,98891.84
2023-02-06T09:39:27.636Z,98888.66
2023-02-06T09:42:09.074Z,98886.38
2023-02-06T09:44:49.792Z,98893.53
2023-02-06T09:47:47.237Z,98895.81
2023-02-06T09:50:27.159Z,98892.97
2023-02-06T09:53:09.605Z,98889.97
2023-02-06T09:55:45.836Z,98893.16
2023-02-06T09:58:32.220Z,98891.47
2023-02-06T10:01:04.471Z,98890.16
2023-02-06T10:04:13.930Z,98892.59
2023-02-06T10:06:47.721Z,98892.97
2023-02-06T10:09:29.626Z,98887.50
2023-02-06T10:12:03.266Z,98901.06
2023-02-06T10:14:57.452Z,98899.75
2023-02-06T10:17:35.146Z,98897.84
2023-02-06T10:20:06.890Z,98906.47
2023-02-06T10:22:43.988Z,98906.66
2023-02-06T10:25:31.574Z,98906.28
2023-02-06T10:28:16.114Z,98903.63
2023-02-06T10:31:06.505Z,98903.78
2023-02-06T10:33:44.020Z,98905.28
2023-02-06T10:36:39.262Z,98909.59
2023-02-06T10:39:28.920Z,98906.94
2023-02-06T10:42:27.989Z,98909.72
2023-02-06T10:45:26.591Z,98911.78
2023-02-06T10:48:19.180Z,98907.00
2023-02-06T10:50:52.185Z,98910.56
2023-02-06T10:53:42.834Z,98922.56
2023-02-06T10:56:15.188Z,98915.38
2023-02-06T10:59:06.975Z,98923.06
2023-02-06T11:01:41.068Z,98923.22
2023-02-06T11:04:21.143Z,98928.78
2023-02-06T11:06:49.443Z,98932.13
2023-02-06T11:09:17.775Z,98934.88
2023-02-06T11:11:52.227Z,98931.97
2023-02-06T11:14:28.958Z,98931.38
2023-02-06T11:17:00.750Z,98931.50
2023-02-06T11:19:45.477Z,98932.41
2023-02-06T11:22:27.441Z,98934.28
2023-02-06T11:25:08.482Z,98933.13
2023-02-06T11:27:37.794Z,98939.63
2023-02-06T11:30:23.100Z,98941.84
2023-02-06T11:33:04.431Z,98943.84
2023-02-06T11:35:39.903Z,98939.06
2023-02-06T11:38:17.295Z,98945.59
2023-02-06T11:41:02.267Z,98949.28
2023-02-06T11:43:48.485Z,98958.63
2023-02-06T11:46:25.021Z,98950.44
2023-02-06T11:49:00.449Z,98951.88
2023-02-06T11:51:49.341Z,98960.22
2023-02-06T11:54:54.695Z,98968.03
2023-02-06T11:57:26.348Z,98973.06
2023-02-06T12:00:00.647Z,98978.78
2023-02-06T12:02:30.786Z,98977.78
2023-02-06T12:05:17.585Z,98985.81
2023-02-06T12:07:51.167Z,98993.06
2023-02-06T12:10:21.423Z,99002.63
2023-02-06T12:12:54.972Z,98995.25
2023-02-06T12:15:45.388Z,98992.56
2023-02-06T12:18:26.504Z,98999.81
2023-02-06T12:20:56.527Z,99014.75
2023-02-06T12:23:49.750Z,99006.94
2023-02-06T12:26:21.685Z,99020.38
2023-02-06T12:29:07.078Z,99019.94
2023-02-06T12:31:46.922Z,99028.50
2023-02-06T12:34:26.881Z,99035.94
2023-02-06T12:37:15.252Z,99046.97
2023-02-06T12:39:44.794Z,99030.91
2023-02-06T12:42:28.184Z,99040.44
2023-02-06T12:45:08.030Z,99047.69
2023-02-06T12:47:40.151Z,99044.97
2023-02-06T12:50:15.764Z,99056.53
2023-02-06T12:53:01.795Z,99063.00
2023-02-06T12:55:39.788Z,99058.97
2023-02-06T12:58:37.879Z,99063.19
2023-02-06T13:01:27.883Z,99066.31
2023-02-06T13:04:03.806Z,99068.69
2023-02-06T13:06:54.100Z,99078.19
2023-02-06T13:09:33.395Z,99079.75
2023-02-06T13:12:15.307Z,99077.03
2023-02-06T13:14:55.309Z,99084.50
2023-02-06T13:17:39.174Z,99098.31
2023-02-06T13:20:10.381Z,99100.88
2023-02-06T13:22:38.949Z,99099.13
2023-02-06T13:25:32.011Z,99092.00
2023-02-06T13:28:02.442Z,99093.81
2023-02-06T13:30:30.861Z,99099.97
2023-02-06T13:33:22.265Z,99099.53
2023-02-06T13:36:04.817Z,99107.69
2023-02-06T13:38:36.184Z,99102.91
2023-02-06T13:41:16.887Z,99105.28
2023-02-06T13:44:28.012Z,99104.81
2023-02-06T13:47:30.367Z,99109.22
2023-02-06T13:50:28.158Z,99114.84
2023-02-06T13:53:11.453Z,99111.28
2023-02-06T13:55:55.000Z,99113.84
2023-02-06T13:58:40.667Z,99112.88
2023-02-06T14:01:17.084Z,99123.88
2023-02-06T14:03:50.998Z,99123.38
2023-02-06T14:06:37.366Z,99118.31
2023-02-06T14:09:52.301Z,99124.22
2023-02-06T14:12:40.280Z,99125.81
2023-02-06T14:15:38.498Z,99121.78
2023-02-06T14:18:28.484Z,99126.16
2023-02-06T14:21:14.971Z,99132.06
2023-02-06T14:23:58.277Z,99138.72
2023-02-06T14:26:29.427Z,99137.72
2023-02-06T14:29:04.595Z,99131.63
2023-02-06T14:31:35.576Z,99142.63
2023-02-06T14:34:25.810Z,99138.81
2023-02-06T14:37:31.047Z,99139.13
2023-02-06T14:40:07.514Z,99135.56
2023-02-06T14:42:43.337Z,99140.94
2023-02-06T14:45:42.395Z,99145.56
2023-02-06T14:48:39.345Z,99141.75
2023-02-06T14:51:09.311Z,99143.03
2023-02-06T14:53:40.061Z,99144.84
2023-02-06T14:56:17.862Z,99141.03
2023-02-06T14:58:47.356Z,99146.41
2023-02-06T15:01:29.912Z,99141.09
2023-02-06T15:04:13.548Z,99143.94
2023-02-06T15:06:45.972Z,99143.72
2023-02-06T15:09:30.896Z,99138.38
2023-02-06T15:12:02.465Z,99147.56
2023-02-06T15:14:35.608Z,99146.03
2023-02-06T15:17:04.456Z,99150.13
2023-02-06T15:19:36.479Z,99142.75
2023-02-06T15:22:09.751Z,99145.84
2023-02-06T15:24:56.385Z,99144.84
2023-02-06T15:27:58.667Z,99150.97
2023-02-06T15:30:27.764Z,99151.50
2023-02-06T15:32:57.159Z,99151.25
2023-02-06T15:35:29.925Z,99152.28
2023-02-06T15:38:08.412Z,99152.56
2023-02-06T15:40:44.252Z,99155.13
2023-02-06T15:43:20.880Z,99157.69
2023-02-06T15:45:52.372Z,99154.66
2023-02-06T15:48:42.667Z,99151.59
2023-02-06T15:51:28.910Z,99153.66
2023-02-06T15:54:07.995Z,99147.81
2023-02-06T15:56:41.290Z,99140.66
2023-02-06T15:59:25.183Z,99142.72
2023-02-06T16:01:56.659Z,99151.13
2023-02-06T16:04:38.248Z,99150.88
2023-02-06T16:07:06.571Z,99151.38
2023-02-06T16:09:50.858Z,99152.41
2023-02-06T16:12:20.040Z,99147.84
2023-02-06T16:15:02.408Z,99148.38
2023-02-06T16:17:42.169Z,99141.00
2023-02-06T16:20:48.902Z,99149.19
2023-02-06T16:23:24.922Z,99144.84
2023-02-06T16:26:26.128Z,99139.00
2023-02-06T16:29:00.143Z,99140.28
2023-02-06T16:31:30.960Z,99147.94
2023-02-06T16:34:06.397Z,99144.13
2023-02-06T16:36:34.868Z,99147.47
2023-02-06T16:39:04.652Z,99149.50
2023-02-06T16:41:36.209Z,99139.03
2023-02-06T16:44:11.536Z,99135.47
2023-02-06T16:46:40.112Z,99131.16
2023-02-06T16:49:20.121Z,99128.88
2023-02-06T16:51:51.047Z,99134.19
2023-02-06T16:54:29.300Z,99133.19
2023-02-06T16:57:04.609Z,99143.41
2023-02-06T16:59:32.885Z,99131.97
2023-02-06T17:02:01.268Z,99135.28
2023-02-06T17:04:29.585Z,99140.66
2023-02-06T17:06:58.588Z,99140.41
2023-02-06T17:09:27.570Z,99142.22
2023-02-06T17:11:56.754Z,99137.88
2023-02-06T17:14:26.157Z,99134.06
2023-02-06T17:16:55.788Z,99135.88
2023-02-06T17:19:26.665Z,99141.22
2023-02-06T17:21:54.974Z,99138.91
2023-02-06T17:24:23.332Z,99130.75
2023-02-06T17:26:51.617Z,99130.53
2023-02-06T17:29:19.920Z,99138.69
2023-02-06T17:31:48.380Z,99138.69
2023-02-06T17:34:16.809Z,99124.44
2023-02-06T17:36:46.144Z,99131.31
2023-02-06T17:39:14.917Z,99135.41
2023-02-06T17:41:43.208Z,99130.81
2023-02-06T17:44:12.732Z,99129.31
2023-02-06T17:46:41.444Z,99132.63
2023-02-06T17:49:10.188Z,99123.97
2023-02-06T17:51:41.692Z,99129.34
2023-02-06T17:54:11.141Z,99125.00
2023-02-06T17:56:39.988Z,99121.97
2023-02-06T17:59:08.491Z,99119.16
2023-02-06T18:01:36.924Z,99124.00
2023-02-06T18:04:05.558Z,99122.47
2023-02-06T18:06:37.256Z,99115.34
2023-02-06T18:09:06.434Z,99112.53
2023-02-06T18:11:36.680Z,99111.28
2023-02-06T18:14:05.954Z,99113.31
2023-02-06T18:16:34.765Z,99111.78
2023-02-06T18:19:03.434Z,99113.06
2023-02-06T18:21:32.407Z,99100.34
2023-02-06T18:24:00.867Z,99103.91
2023-02-06T18:26:29.289Z,99101.59
2023-02-06T18:28:57.656Z,99100.81
2023-02-06T18:31:29.306Z,99099.31
2023-02-06T18:33:58.685Z,99103.38
2023-02-06T18:36:28.751Z,99096.78
2023-02-06T18:38:58.564Z,99088.88
2023-02-06T18:41:45.208Z,99088.63
2023-02-06T18:44:14.379Z,99090.69
2023-02-06T18:46:43.372Z,99085.84
2023-02-06T18:49:11.698Z,99090.69
2023-02-06T18:51:40.171Z,99090.69
2023-02-06T18:54:08.940Z,99086.34
2023-02-06T18:56:38.930Z,99085.59
2023-02-06T18:59:07.833Z,99086.88
2023-02-06T19:01:36.510Z,99088.16
2023-02-06T19:04:05.044Z,99087.38
2023-02-06T19:06:36.549Z,99080.25
2023-02-06T19:09:09.937Z,99073.66
2023-02-06T19:11:38.411Z,99079.25
2023-02-06T19:14:09.104Z,99077.22
2023-02-06T19:16:39.427Z,99075.94
2023-02-06T19:19:11.895Z,99074.41
2023-02-06T19:21:40.454Z,99066.78
2023-02-06T19:24:09.408Z,99057.63
2023-02-06T19:26:37.767Z,99058.88
2023-02-06T19:29:06.159Z,99060.16
2023-02-06T19:31:36.902Z,99055.09
2023-02-06T19:34:05.214Z,99055.59
2023-02-06T19:36:33.639Z,99049.75
2023-02-06T19:39:04.509Z,99055.88
2023-02-06T19:41:34.614Z,99048.47
2023-02-06T19:44:06.647Z,99046.97
2023-02-06T19:46:36.326Z,99046.72
2023-02-06T19:49:07.155Z,99041.88
2023-02-06T19:51:39.091Z,99037.53
2023-02-06T19:54:08.286Z,99043.91
2023-02-06T19:56:40.466Z,99034.75
2023-02-06T19:59:14.510Z,99032.72
2023-02-06T20:01:43.151Z,99029.38
2023-02-06T20:04:12.453Z,99032.44
2023-02-06T20:06:41.588Z,99031.94
2023-02-06T20:09:09.892Z,99025.84
2023-02-06T20:11:38.478Z,99030.16
2023-02-06T20:14:07.483Z,99031.69
2023-02-06T20:16:38.257Z,99026.06
2023-02-06T20:19:15.017Z,99019.72
2023-02-06T20:21:46.390Z,99021.22
2023-02-06T20:24:19.420Z,99018.44
2023-02-06T20:26:49.536Z,99019.19
2023-02-06T20:29:28.083Z,99021.22
2023-02-06T20:31:57.059Z,99023.28
2023-02-06T20:34:26.995Z,99033.47
2023-02-06T20:36:56.391Z,99027.59
2023-02-06T20:39:26.173Z,99032.44
2023-02-06T20:41:55.434Z,99026.59
2023-02-06T20:44:23.752Z,99023.03
2023-02-06T20:46:52.063Z,99021.50
2023-02-06T20:49:23.317Z,99027.09
2023-02-06T20:51:52.413Z,99026.88
2023-02-06T20:54:21.810Z,99026.63
2023-02-06T20:56:50.719Z,99024.81
2023-02-06T20:59:21.369Z,99030.41
2023-02-06T21:01:50.132Z,99025.34
2023-02-06T21:04:19.091Z,99025.09
2023-02-06T21:06:49.459Z,99023.31
2023-02-06T21:09:19.326Z,99033.00
2023-02-06T21:11:49.383Z,99034.78
2023-02-06T21:14:19.109Z,99036.59
2023-02-06T21:16:48.312Z,99032.03
2023-02-06T21:19:19.152Z,99033.03
2023-02-06T21:21:48.233Z,99039.91
2023-02-06T21:24:17.886Z,99041.69
2023-02-06T21:26:46.360Z,99043.72
2023-02-06T21:29:16.176Z,99039.41
2023-02-06T21:31:45.147Z,99045.00
2023-02-06T21:34:22.883Z,99047.56
2023-02-06T21:36:52.042Z,99053.41
2023-02-06T21:39:23.324Z,99058.22
2023-02-06T21:41:54.846Z,99060.28
2023-02-06T21:44:27.672Z,99064.59
2023-02-06T21:46:57.024Z,99067.38
2023-02-06T21:49:25.737Z,99071.47
2023-02-06T21:51:54.600Z,99073.00
2023-02-06T21:54:23.365Z,99078.59
2023-02-06T21:56:52.424Z,99088.50
2023-02-06T21:59:20.727Z,99084.19
2023-02-06T22:01:49.052Z,99090.53
2023-02-06T22:04:17.476Z,99091.31
2023-02-06T22:06:46.833Z,99098.94
2023-02-06T22:09:17.498Z,99096.91
2023-02-06T22:11:47.411Z,99104.03
2023-02-06T22:14:18.448Z,99111.91
2023-02-06T22:16:47.804Z,99107.06
2023-02-06T22:19:17.372Z,99107.84
2023-02-06T22:21:46.281Z,99103.00
2023-02-06T22:24:14.881Z,99110.13
2023-02-06T22:26:44.056Z,99108.09
2023-02-06T22:29:15.915Z,99115.19
2023-02-06T22:31:45.841Z,99120.81
2023-02-06T22:34:20.733Z,99124.38
2023-02-06T22:36:51.889Z,99130.00
2023-02-06T22:39:20.892Z,99135.59
2023-02-06T22:41:50.257Z,99137.59
2023-02-06T22:44:20.581Z,99134.03
2023-02-06T22:46:52.328Z,99146.78
2023-02-06T22:49:22.901Z,99146.50
2023-02-06T22:51:51.685Z,99148.03
2023-02-06T22:54:19.993Z,99153.63
2023-02-06T22:56:48.563Z,99158.47
2023-02-06T22:59:23.596Z,99166.88
2023-02-06T23:01:59.749Z,99159.22
2023-02-06T23:04:31.172Z,99171.69
2023-02-06T23:06:59.486Z,99168.13
2023-02-06T23:09:34.257Z,99166.63
2023-02-06T23:12:03.594Z,99174.25
2023-02-06T23:14:33.461Z,99178.56
2023-02-06T23:17:03.296Z,99188.25
2023-02-06T23:19:31.854Z,99183.41
2023-02-06T23:22:00.264Z,99191.28
2023-02-06T23:24:28.783Z,99195.63
2023-02-06T23:26:57.134Z,99198.69
2023-02-06T23:29:25.584Z,99206.34
2023-02-06T23:31:53.981Z,99212.69
2023-02-06T23:34:24.731Z,99219.81
2023-02-06T23:36:53.944Z,99217.03
2023-02-06T23:39:22.347Z,99222.63
2023-02-06T23:41:50.796Z,99227.44
2023-02-06T23:44:19.606Z,99225.16
2023-02-06T23:46:48.867Z,99228.44
2023-02-06T23:49:17.207Z,99238.13
2023-02-06T23:51:45.560Z,99239.91
2023-02-06T23:54:13.966Z,99244.72
2023-02-06T23:56:42.276Z,99248.81
2023-02-06T23:59:11.577Z,99244.47
